createdAt,value
2019-01-18T00:01:28.360Z,11.70
2019-01-18T00:03:58.139Z,10.67
2019-01-18T00:06:27.802Z,13.33
2019-01-18T00:08:58.649Z,11.73
2019-01-18T00:11:27.978Z,14.10
2019-01-18T00:13:57.181Z,11.77
2019-01-18T00:16:26.475Z,12.73
2019-01-18T00:18:55.874Z,12.30
2019-01-18T00:21:25.075Z,12.17
2019-01-18T00:23:54.350Z,10.77
2019-01-18T00:26:23.708Z,14.93
2019-01-18T00:28:53.314Z,12.73
2019-01-18T00:31:23.238Z,14.00
2019-01-18T00:33:52.631Z,12.83
2019-01-18T00:36:22.305Z,11.17
2019-01-18T00:38:52.242Z,9.70
2019-01-18T00:41:21.990Z,10.50
2019-01-18T00:43:51.638Z,10.73
2019-01-18T00:46:21.250Z,10.23
2019-01-18T00:48:51.000Z,10.30
2019-01-18T00:51:20.362Z,9.63
2019-01-18T00:53:50.024Z,11.17
2019-01-18T00:56:19.414Z,11.90
2019-01-18T00:58:49.216Z,8.57
2019-01-18T01:01:18.603Z,10.00
2019-01-18T01:03:48.292Z,11.00
2019-01-18T01:06:17.674Z,11.00
2019-01-18T01:08:48.411Z,9.70
2019-01-18T01:11:17.746Z,11.30
2019-01-18T01:13:47.079Z,11.53
2019-01-18T01:16:16.769Z,13.33
2019-01-18T01:18:46.079Z,12.90
2019-01-18T01:21:15.386Z,11.03
2019-01-18T01:23:44.765Z,12.73
2019-01-18T01:26:14.079Z,13.90
2019-01-18T01:28:43.725Z,15.87
2019-01-18T01:31:13.073Z,15.60
2019-01-18T01:33:42.373Z,14.43
2019-01-18T01:36:11.770Z,13.03
2019-01-18T01:38:41.383Z,14.60
2019-01-18T01:41:10.693Z,18.53
2019-01-18T01:43:40.357Z,14.73
2019-01-18T01:46:09.788Z,16.67
2019-01-18T01:48:39.045Z,14.23
2019-01-18T01:51:08.777Z,14.20
2019-01-18T01:53:38.458Z,15.13
2019-01-18T01:56:07.749Z,13.53
2019-01-18T01:58:37.162Z,14.10
2019-01-18T02:01:06.607Z,18.67
2019-01-18T02:03:35.999Z,18.47
2019-01-18T02:06:05.265Z,15.00
2019-01-18T02:08:34.490Z,16.03
2019-01-18T02:11:04.123Z,14.27
2019-01-18T02:13:33.479Z,15.60
2019-01-18T02:16:02.846Z,17.93
2019-01-18T02:18:32.183Z,18.50
2019-01-18T02:21:01.537Z,15.77
2019-01-18T02:23:31.099Z,17.00
2019-01-18T02:26:00.637Z,14.67
2019-01-18T02:28:29.975Z,16.53
2019-01-18T02:30:59.370Z,20.37
2019-01-18T02:33:28.999Z,17.80
2019-01-18T02:35:59.070Z,15.80
2019-01-18T02:38:28.448Z,19.00
2019-01-18T02:40:57.676Z,18.00
2019-01-18T02:43:27.270Z,17.93
2019-01-18T02:45:56.612Z,17.73
2019-01-18T02:48:26.300Z,22.60
2019-01-18T02:50:55.533Z,18.97
2019-01-18T02:53:24.882Z,16.33
2019-01-18T02:55:54.504Z,22.37
2019-01-18T02:58:23.780Z,20.60
2019-01-18T03:00:53.048Z,22.37
2019-01-18T03:03:22.372Z,18.10
2019-01-18T03:05:52.219Z,19.40
2019-01-18T03:08:21.509Z,21.73
2019-01-18T03:10:50.870Z,23.50
2019-01-18T03:13:20.228Z,24.00
2019-01-18T03:15:49.517Z,21.30
2019-01-18T03:18:18.891Z,22.60
2019-01-18T03:20:48.348Z,28.17
2019-01-18T03:23:17.691Z,27.53
2019-01-18T03:25:47.663Z,23.17
2019-01-18T03:28:17.379Z,28.80
2019-01-18T03:30:46.739Z,27.90
2019-01-18T03:33:16.140Z,27.10
2019-01-18T03:35:45.520Z,30.87
2019-01-18T03:38:14.868Z,33.23
2019-01-18T03:40:45.960Z,24.33
2019-01-18T03:43:15.648Z,26.13
2019-01-18T03:45:44.991Z,24.27
2019-01-18T03:48:14.291Z,26.17
2019-01-18T03:50:44.554Z,26.27
2019-01-18T03:53:13.948Z,28.47
2019-01-18T03:55:43.888Z,27.77
2019-01-18T03:58:13.238Z,27.90
2019-01-18T04:00:42.627Z,29.93
2019-01-18T04:03:13.093Z,29.33
2019-01-18T04:05:42.746Z,32.33
2019-01-18T04:08:12.110Z,29.00
2019-01-18T04:10:41.468Z,25.93
2019-01-18T04:13:10.830Z,27.70
2019-01-18T04:15:40.545Z,22.07
2019-01-18T04:18:10.002Z,24.63
2019-01-18T04:20:39.361Z,29.07
2019-01-18T04:23:09.065Z,23.07
2019-01-18T04:25:38.693Z,25.47
2019-01-18T04:28:08.437Z,23.87
2019-01-18T04:30:37.929Z,25.13
2019-01-18T04:33:07.205Z,22.70
2019-01-18T04:35:36.573Z,26.70
2019-01-18T04:38:06.623Z,31.23
2019-01-18T04:40:35.871Z,27.93
2019-01-18T04:43:05.309Z,26.67
2019-01-18T04:45:34.677Z,22.83
2019-01-18T04:48:04.048Z,20.43
2019-01-18T04:50:33.339Z,28.27
2019-01-18T04:53:03.035Z,18.83
2019-01-18T04:55:32.757Z,23.40
2019-01-18T04:58:02.094Z,25.13
2019-01-18T05:00:32.045Z,27.63
2019-01-18T05:03:01.871Z,25.70
2019-01-18T05:05:31.189Z,26.10
2019-01-18T05:08:00.478Z,28.43
2019-01-18T05:10:30.349Z,24.87
2019-01-18T05:13:00.079Z,25.80
2019-01-18T05:15:31.486Z,33.97
2019-01-18T05:18:00.757Z,26.63
2019-01-18T05:20:29.973Z,29.63
2019-01-18T05:22:59.291Z,31.20
2019-01-18T05:25:28.894Z,30.20
2019-01-18T05:27:58.299Z,35.30
2019-01-18T05:30:29.814Z,31.57
2019-01-18T05:32:59.481Z,26.33
2019-01-18T05:35:28.845Z,34.47
2019-01-18T05:37:58.394Z,26.83
2019-01-18T05:40:27.678Z,28.90
2019-01-18T05:42:57.686Z,23.57
2019-01-18T05:45:27.450Z,27.40
2019-01-18T05:47:56.850Z,29.37
2019-01-18T05:50:28.081Z,33.70
2019-01-18T05:52:57.720Z,31.17
2019-01-18T05:55:27.985Z,28.73
2019-01-18T05:57:57.190Z,25.97
2019-01-18T06:00:37.922Z,25.50
2019-01-18T06:03:08.007Z,32.33
2019-01-18T06:05:40.130Z,32.73
2019-01-18T06:08:09.516Z,28.00
2019-01-18T06:10:39.385Z,25.00
2019-01-18T06:13:08.720Z,31.60
2019-01-18T06:15:38.118Z,23.87
2019-01-18T06:18:07.411Z,23.60
2019-01-18T06:20:37.090Z,26.30
2019-01-18T06:23:09.389Z,27.67
2019-01-18T06:25:39.074Z,27.93
2019-01-18T06:28:08.550Z,26.57
2019-01-18T06:30:38.292Z,28.20
2019-01-18T06:33:07.642Z,35.50
2019-01-18T06:35:37.085Z,34.70
2019-01-18T06:38:06.435Z,43.23
2019-01-18T06:40:36.445Z,41.73
2019-01-18T06:43:05.863Z,37.93
2019-01-18T06:45:35.527Z,32.00
2019-01-18T06:48:06.006Z,32.13
2019-01-18T06:50:35.826Z,25.00
2019-01-18T06:53:06.018Z,28.87
2019-01-18T06:55:35.438Z,26.93
2019-01-18T06:58:04.948Z,29.50
2019-01-18T07:00:35.321Z,27.03
2019-01-18T07:03:05.639Z,23.80
2019-01-18T07:05:34.933Z,23.37
2019-01-18T07:08:04.474Z,24.43
2019-01-18T07:10:34.141Z,27.73
2019-01-18T07:13:03.441Z,22.93
2019-01-18T07:15:32.704Z,25.63
2019-01-18T07:18:02.080Z,28.07
2019-01-18T07:20:31.843Z,33.30
2019-01-18T07:23:01.249Z,48.57
2019-01-18T07:25:31.599Z,50.20
2019-01-18T07:28:01.225Z,42.70
2019-01-18T07:30:36.501Z,40.70
2019-01-18T07:33:10.211Z,34.23
2019-01-18T07:35:40.821Z,32.53
2019-01-18T07:38:10.065Z,28.50
2019-01-18T07:40:39.368Z,25.30
2019-01-18T07:43:09.057Z,32.47
2019-01-18T07:45:39.651Z,32.83
2019-01-18T07:48:09.010Z,32.50
2019-01-18T07:50:38.333Z,27.73
2019-01-18T07:53:08.151Z,40.17
2019-01-18T07:55:37.784Z,45.97
2019-01-18T07:58:07.310Z,41.60
2019-01-18T08:00:37.007Z,35.73
2019-01-18T08:03:06.568Z,36.07
2019-01-18T08:05:35.982Z,38.20
2019-01-18T08:08:06.121Z,36.13
2019-01-18T08:10:35.619Z,32.30
2019-01-18T08:13:05.321Z,35.43
2019-01-18T08:15:34.622Z,36.73
2019-01-18T08:18:04.825Z,39.30
2019-01-18T08:20:34.253Z,32.77
2019-01-18T08:23:03.739Z,40.53
2019-01-18T08:25:33.707Z,37.07
2019-01-18T08:28:04.233Z,41.97
2019-01-18T08:30:33.567Z,58.53
2019-01-18T08:33:03.338Z,96.80
2019-01-18T08:35:33.066Z,116.97
2019-01-18T08:38:02.792Z,42.57
2019-01-18T08:40:37.555Z,49.77
2019-01-18T08:43:12.111Z,54.00
2019-01-18T08:45:47.324Z,52.43
2019-01-18T08:48:16.839Z,50.63
2019-01-18T08:50:46.397Z,147.30
2019-01-18T08:53:15.850Z,219.00
2019-01-18T08:55:45.683Z,257.93
2019-01-18T08:58:15.082Z,306.33
2019-01-18T09:00:44.781Z,368.70
2019-01-18T09:03:14.570Z,291.90
2019-01-18T09:05:43.970Z,201.60
2019-01-18T09:08:13.752Z,386.63
2019-01-18T09:10:43.441Z,467.40
2019-01-18T09:13:12.833Z,383.50
2019-01-18T09:15:42.396Z,345.13
2019-01-18T09:18:11.984Z,405.77
2019-01-18T09:20:41.345Z,401.10
2019-01-18T09:23:11.165Z,315.83
2019-01-18T09:25:40.542Z,224.63
2019-01-18T09:28:10.210Z,292.00
2019-01-18T09:30:39.788Z,191.73
2019-01-18T09:33:10.146Z,204.43
2019-01-18T09:35:40.835Z,177.60
2019-01-18T09:38:17.736Z,194.03
2019-01-18T09:40:45.104Z,147.33
2019-01-18T09:43:14.420Z,164.20
2019-01-18T09:45:44.204Z,180.37
2019-01-18T09:48:13.956Z,181.17
2019-01-18T09:50:44.041Z,215.27
2019-01-18T09:53:13.774Z,119.23
2019-01-18T09:55:43.272Z,144.23
2019-01-18T09:58:12.649Z,272.00
2019-01-18T10:00:44.066Z,277.70
2019-01-18T10:03:13.755Z,240.77
2019-01-18T10:05:43.146Z,227.27
2019-01-18T10:08:13.118Z,280.13
2019-01-18T10:10:42.526Z,257.50
2019-01-18T10:13:12.129Z,206.07
2019-01-18T10:15:43.764Z,143.03
2019-01-18T10:18:13.409Z,258.60
2019-01-18T10:20:42.708Z,206.53
2019-01-18T10:23:12.221Z,276.47
2019-01-18T10:25:41.629Z,251.33
2019-01-18T10:28:11.709Z,391.30
2019-01-18T10:30:41.385Z,312.80
2019-01-18T10:36:32.539Z,339.73
2019-01-18T10:39:01.852Z,358.73
2019-01-18T10:41:31.614Z,448.03
2019-01-18T10:44:05.920Z,467.70
2019-01-18T10:46:32.146Z,325.90
2019-01-18T10:49:02.197Z,459.60
2019-01-18T10:51:31.775Z,386.97
2019-01-18T10:54:02.338Z,377.23
2019-01-18T10:56:31.643Z,461.50
2019-01-18T10:59:01.043Z,371.00
2019-01-18T11:01:30.337Z,286.03
2019-01-18T11:03:59.923Z,273.13
2019-01-18T11:06:29.224Z,300.90
2019-01-18T11:08:58.523Z,313.37
2019-01-18T11:11:27.876Z,247.57
2019-01-18T11:13:57.509Z,254.87
2019-01-18T11:16:26.958Z,232.23
2019-01-18T11:18:56.316Z,325.63
2019-01-18T11:21:25.645Z,285.53
2019-01-18T11:23:54.997Z,325.73
2019-01-18T11:26:24.655Z,367.10
2019-01-18T11:28:53.933Z,236.83
2019-01-18T11:31:23.902Z,381.13
2019-01-18T11:33:55.157Z,358.57
2019-01-18T11:36:27.181Z,239.40
2019-01-18T11:38:57.089Z,263.60
2019-01-18T11:41:26.693Z,304.67
2019-01-18T11:43:56.913Z,290.97
2019-01-18T11:46:26.297Z,314.27
2019-01-18T11:48:57.911Z,233.00
2019-01-18T11:51:27.411Z,224.17
2019-01-18T11:53:57.073Z,373.90
2019-01-18T11:56:26.823Z,346.87
2019-01-18T11:58:56.237Z,341.80
2019-01-18T12:01:26.257Z,147.80
2019-01-18T12:03:56.082Z,355.53
2019-01-18T12:06:25.470Z,406.90
2019-01-18T12:08:55.187Z,350.47
2019-01-18T12:11:24.627Z,218.93
2019-01-18T12:13:54.157Z,293.30
2019-01-18T12:16:23.618Z,272.47
2019-01-18T12:18:53.189Z,251.37
2019-01-18T12:21:22.573Z,279.37
2019-01-18T12:23:52.009Z,257.43
2019-01-18T12:26:21.303Z,274.90
2019-01-18T12:28:50.789Z,237.40
2019-01-18T12:31:20.182Z,245.93
2019-01-18T12:33:49.579Z,388.80
2019-01-18T12:36:19.305Z,354.37
2019-01-18T12:38:48.688Z,245.63
2019-01-18T12:41:18.460Z,247.00
2019-01-18T12:43:48.391Z,254.47
2019-01-18T12:46:17.852Z,202.73
2019-01-18T12:48:47.395Z,193.27
2019-01-18T12:51:17.144Z,126.73
2019-01-18T12:53:46.605Z,202.97
2019-01-18T12:56:15.942Z,164.03
2019-01-18T12:58:45.336Z,143.83
2019-01-18T13:01:15.006Z,154.70
2019-01-18T13:03:44.746Z,87.37
2019-01-18T13:06:14.137Z,77.30
2019-01-18T13:08:43.508Z,75.97
2019-01-18T13:11:13.096Z,76.50
2019-01-18T13:13:42.676Z,83.07
2019-01-18T13:16:38.824Z,68.63
2019-01-18T13:19:28.841Z,74.07
2019-01-18T13:21:58.345Z,64.27
2019-01-18T13:24:27.741Z,74.83
2019-01-18T13:26:57.817Z,66.13
2019-01-18T13:29:27.774Z,69.07
2019-01-18T13:31:57.412Z,61.57
2019-01-18T13:34:26.694Z,55.67
2019-01-18T13:36:56.394Z,66.00
2019-01-18T13:39:26.032Z,57.93
2019-01-18T13:41:55.824Z,56.00
2019-01-18T13:44:25.516Z,56.40
2019-01-18T13:46:55.100Z,59.77
2019-01-18T13:49:24.538Z,59.80
2019-01-18T13:51:53.932Z,49.23
2019-01-18T13:54:23.184Z,49.17
2019-01-18T13:56:52.792Z,44.77
2019-01-18T13:59:22.007Z,48.20
2019-01-18T14:01:51.324Z,42.10
2019-01-18T14:04:20.538Z,45.20
2019-01-18T14:06:50.105Z,51.00
2019-01-18T14:09:19.809Z,46.93
2019-01-18T14:11:55.630Z,39.67
2019-01-18T14:14:21.020Z,41.20
2019-01-18T14:16:50.323Z,43.83
2019-01-18T14:19:19.769Z,47.37
2019-01-18T14:21:48.991Z,42.17
2019-01-18T14:24:18.273Z,44.50
2019-01-18T14:26:47.637Z,35.00
2019-01-18T14:29:16.942Z,39.50
2019-01-18T14:31:46.597Z,41.37
2019-01-18T14:34:16.580Z,33.93
2019-01-18T14:36:45.944Z,42.30
2019-01-18T14:39:15.622Z,39.20
2019-01-18T14:41:45.311Z,38.03
2019-01-18T14:44:15.039Z,39.80
2019-01-18T14:46:44.405Z,36.90
2019-01-18T14:49:14.014Z,41.67
2019-01-18T14:51:43.645Z,35.83
2019-01-18T14:54:13.283Z,39.83
2019-01-18T14:56:42.652Z,37.17
2019-01-18T14:59:12.020Z,40.63
2019-01-18T15:01:41.749Z,38.90
2019-01-18T15:04:11.178Z,47.13
2019-01-18T15:06:40.706Z,47.83
2019-01-18T15:09:11.539Z,46.73
2019-01-18T15:11:41.000Z,42.93
2019-01-18T15:14:10.305Z,46.13
2019-01-18T15:16:40.213Z,40.70
2019-01-18T15:19:09.544Z,40.27
2019-01-18T15:21:38.835Z,43.73
2019-01-18T15:24:08.188Z,40.53
2019-01-18T15:26:37.574Z,42.33
2019-01-18T15:29:07.184Z,43.60
2019-01-18T15:31:36.543Z,44.77
2019-01-18T15:34:06.069Z,51.43
2019-01-18T15:36:35.355Z,50.67
2019-01-18T15:39:09.565Z,51.80
2019-01-18T15:41:38.880Z,55.80
2019-01-18T15:44:08.242Z,54.87
2019-01-18T15:46:37.449Z,54.90
2019-01-18T15:49:07.121Z,63.27
2019-01-18T15:51:37.105Z,62.50
2019-01-18T15:54:06.400Z,77.00
2019-01-18T15:56:36.052Z,61.50
2019-01-18T15:59:06.057Z,65.37
2019-01-18T16:01:35.751Z,70.83
2019-01-18T16:04:05.345Z,76.33
2019-01-18T16:06:35.020Z,80.33
2019-01-18T16:09:07.702Z,89.97
2019-01-18T16:11:37.052Z,80.37
2019-01-18T16:14:06.499Z,87.10
2019-01-18T16:16:41.600Z,94.40
2019-01-18T16:19:10.980Z,107.17
2019-01-18T16:21:40.251Z,109.70
2019-01-18T16:24:09.652Z,100.07
2019-01-18T16:26:39.341Z,104.53
2019-01-18T16:29:08.703Z,125.03
2019-01-18T16:31:38.126Z,135.47
2019-01-18T16:34:07.522Z,119.17
2019-01-18T16:36:36.814Z,146.27
2019-01-18T16:39:09.520Z,116.10
2019-01-18T16:41:39.010Z,102.17
2019-01-18T16:44:08.370Z,114.93
2019-01-18T16:46:37.977Z,182.00
2019-01-18T16:49:07.352Z,150.10
2019-01-18T16:51:36.677Z,153.47
2019-01-18T16:54:06.578Z,177.07
2019-01-18T16:56:36.669Z,140.77
2019-01-18T16:59:06.004Z,271.40
2019-01-18T17:01:36.006Z,212.87
2019-01-18T17:04:05.517Z,193.10
2019-01-18T17:06:35.148Z,470.67
2019-01-18T17:09:07.848Z,411.33
2019-01-18T17:11:37.209Z,181.13
2019-01-18T17:14:06.600Z,364.37
2019-01-18T17:16:36.264Z,308.73
2019-01-18T17:19:05.917Z,469.40
2019-01-18T17:21:35.193Z,579.40
2019-01-18T17:24:04.679Z,492.93
2019-01-18T17:26:34.246Z,411.03
2019-01-18T17:29:03.661Z,361.60
2019-01-18T17:31:33.116Z,437.60
2019-01-18T17:34:02.461Z,516.03
2019-01-18T17:36:35.730Z,358.93
2019-01-18T17:39:42.555Z,421.00
2019-01-18T17:42:40.644Z,334.47
2019-01-18T17:45:53.322Z,351.77
2019-01-18T17:48:42.887Z,403.27
2019-01-18T17:51:49.400Z,554.27
2019-01-18T17:55:24.359Z,325.97
2019-01-18T17:58:29.324Z,444.37
2019-01-18T18:01:39.675Z,550.03
2019-01-18T18:05:05.067Z,585.17
2019-01-18T18:08:21.667Z,500.73
2019-01-18T18:11:56.283Z,417.53
2019-01-18T18:15:08.163Z,362.77
2019-01-18T18:18:14.671Z,362.83
2019-01-18T18:21:10.244Z,333.43
2019-01-18T18:23:55.639Z,277.87
2019-01-18T18:27:08.761Z,302.20
2019-01-18T18:30:27.546Z,306.10
2019-01-18T18:33:34.705Z,212.53
2019-01-18T18:36:33.983Z,283.57
2019-01-18T18:39:36.209Z,345.77
2019-01-18T18:42:35.030Z,382.43
2019-01-18T18:45:25.236Z,197.50
2019-01-18T18:48:27.525Z,331.63
2019-01-18T18:51:30.377Z,329.80
2019-01-18T18:54:32.408Z,311.63
2019-01-18T18:57:34.325Z,260.53
2019-01-18T19:00:38.493Z,245.60
2019-01-18T19:04:01.113Z,286.90
2019-01-18T19:07:00.803Z,310.73
2019-01-18T19:10:16.389Z,243.63
2019-01-18T19:13:15.347Z,332.90
2019-01-18T19:16:28.994Z,267.73
2019-01-18T19:19:31.186Z,280.40
2019-01-18T19:22:26.953Z,234.63
2019-01-18T19:25:24.913Z,210.80
2019-01-18T19:28:18.481Z,365.60
2019-01-18T19:31:06.062Z,361.57
2019-01-18T19:34:13.810Z,421.03
2019-01-18T19:37:18.481Z,315.67
2019-01-18T19:40:15.694Z,388.87
2019-01-18T19:43:32.337Z,321.87
2019-01-18T19:46:48.521Z,215.63
2019-01-18T19:49:56.241Z,327.23
2019-01-18T19:53:04.808Z,597.63
2019-01-18T19:56:12.122Z,202.73
2019-01-18T19:59:33.599Z,255.77
2019-01-18T20:02:39.221Z,164.00
2019-01-18T20:05:34.900Z,164.20
2019-01-18T20:08:32.707Z,167.50
2019-01-18T20:11:43.654Z,172.63
2019-01-18T20:14:49.465Z,150.40
2019-01-18T20:17:58.789Z,131.23
2019-01-18T20:21:09.237Z,176.83
2019-01-18T20:24:02.153Z,182.60
2019-01-18T20:27:21.862Z,163.13
2019-01-18T20:30:28.394Z,128.27
2019-01-18T20:33:24.832Z,168.93
2019-01-18T20:36:21.542Z,207.93
2019-01-18T20:39:23.417Z,97.93
2019-01-18T20:42:48.069Z,132.23
2019-01-18T20:45:37.413Z,140.13
2019-01-18T20:48:16.246Z,94.00
2019-01-18T20:51:15.891Z,83.63
2019-01-18T20:54:02.297Z,64.37
2019-01-18T20:57:01.524Z,49.03
2019-01-18T20:59:54.043Z,54.20
2019-01-18T21:02:43.300Z,62.90
2019-01-18T21:05:24.996Z,49.00
2019-01-18T21:08:24.399Z,50.73
2019-01-18T21:11:09.700Z,50.67
2019-01-18T21:14:03.364Z,48.30
2019-01-18T21:17:00.309Z,52.87
2019-01-18T21:20:29.315Z,49.33
2019-01-18T21:23:35.575Z,48.10
2019-01-18T21:26:37.212Z,47.37
2019-01-18T21:29:26.499Z,45.90
2019-01-18T21:32:12.443Z,57.67
2019-01-18T21:35:31.291Z,52.53
2019-01-18T21:38:23.610Z,44.17
2019-01-18T21:41:37.342Z,48.57
2019-01-18T21:44:58.935Z,51.07
2019-01-18T21:48:04.106Z,48.27
2019-01-18T21:51:05.318Z,48.53
2019-01-18T21:53:57.018Z,45.97
2019-01-18T21:57:09.189Z,42.17
2019-01-18T22:00:01.777Z,44.20
2019-01-18T22:03:03.688Z,47.70
2019-01-18T22:06:15.740Z,40.80
2019-01-18T22:09:15.662Z,43.17
2019-01-18T22:12:39.528Z,43.03
2019-01-18T22:15:56.018Z,39.47
2019-01-18T22:19:09.156Z,40.07
2019-01-18T22:22:10.010Z,34.70
2019-01-18T22:25:22.349Z,35.97
2019-01-18T22:28:33.711Z,36.50
2019-01-18T22:31:15.580Z,36.83
2019-01-18T22:34:20.463Z,35.60
2019-01-18T22:37:28.038Z,34.53
2019-01-18T22:40:47.143Z,32.97
2019-01-18T22:43:38.195Z,33.70
2019-01-18T22:46:30.289Z,36.87
2019-01-18T22:49:21.332Z,34.27
2019-01-18T22:52:23.390Z,33.67
2019-01-18T22:55:51.598Z,32.43
2019-01-18T22:58:52.596Z,29.53
2019-01-18T23:02:11.032Z,29.50
2019-01-18T23:05:27.288Z,27.67
2019-01-18T23:08:17.915Z,26.37
2019-01-18T23:11:01.353Z,24.03
2019-01-18T23:14:11.929Z,25.27
2019-01-18T23:17:15.742Z,24.10
2019-01-18T23:20:03.993Z,24.83
2019-01-18T23:23:06.985Z,23.77
2019-01-18T23:26:23.693Z,24.03
2019-01-18T23:29:20.423Z,25.73
2019-01-18T23:32:19.669Z,22.50
2019-01-18T23:35:51.456Z,25.50
2019-01-18T23:38:51.812Z,24.57
2019-01-18T23:41:38.418Z,22.20
2019-01-18T23:44:49.159Z,21.67
2019-01-18T23:47:44.255Z,19.17
2019-01-18T23:51:00.537Z,21.33
2019-01-18T23:54:12.997Z,26.17
2019-01-18T23:57:03.718Z,20.53
